Time;durP1;ratioP1;P1;durP2;ratioP2;P2;SDS_P1;SDS_P2;PMS_P1;PMS_P2;Temp;Humidity;BMP_temperature;BMP_pressure;BME280_temperature;BME280_humidity;BME280_pressure;Samples;Min_cycle;Max_cycle;Signal;HPM_P1;HPM_P2
2022/07/09 00:02:11;;;;;;;12.63;9.82;;;14.50;99.90;;;;;;6218694;23;20043;-84
2022/07/09 00:04:37;;;;;;;18.63;12.55;;;14.40;99.90;;;;;;6193903;23;20012;-84
2022/07/09 00:07:03;;;;;;;17.20;11.00;;;14.50;99.90;;;;;;6219200;23;20057;-82
2022/07/09 00:09:29;;;;;;;14.13;10.35;;;14.50;99.90;;;;;;6193197;23;20012;-82
2022/07/09 00:11:54;;;;;;;10.50;9.45;;;14.30;99.90;;;;;;6218506;23;20093;-82
2022/07/09 00:14:20;;;;;;;16.02;9.75;;;14.50;99.90;;;;;;6193571;23;20060;-82
2022/07/09 00:16:46;;;;;;;11.32;8.32;;;14.40;99.90;;;;;;6219017;23;20043;-82
2022/07/09 00:19:12;;;;;;;13.32;8.55;;;14.30;99.90;;;;;;6193422;23;20014;-83
2022/07/09 00:21:37;;;;;;;11.57;9.15;;;14.30;99.90;;;;;;6191858;23;20517;-82
2022/07/09 00:24:03;;;;;;;10.77;8.35;;;14.30;99.90;;;;;;6193301;23;20035;-82
2022/07/09 00:26:29;;;;;;;10.60;7.95;;;14.20;99.90;;;;;;6218511;23;20008;-82
2022/07/09 00:28:54;;;;;;;8.77;7.15;;;14.20;99.90;;;;;;6217717;23;20449;-82
2022/07/09 00:31:20;;;;;;;9.65;7.55;;;14.20;99.90;;;;;;6192748;23;20016;-82
2022/07/09 00:33:45;;;;;;;9.90;8.40;;;14.10;99.90;;;;;;6217761;23;20344;-82
2022/07/09 00:36:11;;;;;;;11.70;8.75;;;14.10;99.90;;;;;;6193948;23;20039;-82
2022/07/09 00:38:36;;;;;;;14.07;8.10;;;14.00;99.90;;;;;;6193555;23;20019;-81
2022/07/09 00:41:02;;;;;;;12.25;8.43;;;14.00;99.90;;;;;;6218904;23;20070;-82
2022/07/09 00:43:28;;;;;;;15.43;9.35;;;14.00;99.90;;;;;;6192560;23;20012;-82
2022/07/09 00:45:53;;;;;;;9.45;8.13;;;14.00;99.90;;;;;;6193653;23;20506;-82
2022/07/09 00:48:19;;;;;;;9.30;7.05;;;13.90;99.90;;;;;;6193044;23;20008;-82
2022/07/09 00:50:46;;;;;;;8.43;7.40;;;13.90;99.90;;;;;;6193577;23;20058;-82
2022/07/09 00:53:14;;;;;;;10.43;8.18;;;14.00;99.90;;;;;;6192737;22;20405;-82
2022/07/09 00:55:40;;;;;;;8.70;6.47;;;14.00;99.90;;;;;;6193847;23;20126;-82
2022/07/09 00:58:07;;;;;;;9.95;7.93;;;14.00;99.90;;;;;;6193327;23;20008;-82
2022/07/09 01:00:34;;;;;;;12.20;8.05;;;13.90;99.90;;;;;;6193858;23;20023;-81
2022/07/09 01:03:00;;;;;;;10.27;6.68;;;13.90;99.90;;;;;;6192403;23;20038;-81
2022/07/09 01:05:25;;;;;;;11.43;7.95;;;13.90;99.90;;;;;;6193429;23;20091;-81
2022/07/09 01:07:52;;;;;;;9.65;7.47;;;13.80;99.90;;;;;;6192362;23;20024;-82
2022/07/09 01:10:17;;;;;;;12.27;7.82;;;13.90;99.90;;;;;;6192334;23;20054;-82
2022/07/09 01:12:44;;;;;;;13.38;8.38;;;13.80;99.90;;;;;;6192996;23;20039;-82
2022/07/09 01:15:10;;;;;;;8.48;6.80;;;13.80;99.90;;;;;;6218385;23;20387;-82
2022/07/09 01:17:42;;;;;;;8.23;7.35;;;13.80;99.90;;;;;;6192909;23;20007;-81
2022/07/09 01:20:08;;;;;;;11.20;7.30;;;13.80;99.90;;;;;;6217828;23;20016;-82
2022/07/09 01:22:34;;;;;;;11.45;8.38;;;13.70;99.90;;;;;;6192454;23;20325;-82
2022/07/09 01:25:01;;;;;;;8.40;7.18;;;13.70;99.90;;;;;;6218223;23;20065;-81
2022/07/09 01:27:27;;;;;;;14.55;8.82;;;13.60;99.90;;;;;;6218736;23;20012;-82
2022/07/09 01:29:52;;;;;;;10.35;7.78;;;13.70;99.90;;;;;;6193017;23;20467;-82
2022/07/09 01:32:19;;;;;;;11.10;8.18;;;13.60;99.90;;;;;;6192394;23;20325;-81
2022/07/09 01:34:44;;;;;;;10.23;8.60;;;13.60;99.90;;;;;;6191908;23;20059;-82
2022/07/09 01:37:10;;;;;;;10.93;7.85;;;13.50;99.90;;;;;;6193199;23;20012;-82
2022/07/09 01:39:49;;;;;;;7.90;6.53;;;13.60;99.90;;;;;;6192621;23;20007;-82
2022/07/09 01:42:16;;;;;;;8.38;7.22;;;13.50;99.90;;;;;;6217714;23;20023;-82
2022/07/09 01:44:41;;;;;;;120.22;10.82;;;13.60;99.90;;;;;;6217823;23;20012;-81
2022/07/09 01:47:07;;;;;;;12.40;8.82;;;13.60;99.90;;;;;;6217432;23;20440;-82
2022/07/09 01:49:33;;;;;;;13.85;9.30;;;13.50;99.90;;;;;;6217817;23;20058;-81
2022/07/09 01:51:58;;;;;;;10.93;8.82;;;13.50;99.90;;;;;;6192604;23;20393;-81
2022/07/09 01:54:24;;;;;;;17.42;10.18;;;13.60;99.90;;;;;;6192857;23;20091;-81
2022/07/09 01:56:50;;;;;;;10.18;8.85;;;13.70;99.90;;;;;;6193136;23;20445;-81
2022/07/09 01:59:16;;;;;;;11.75;9.10;;;13.80;99.90;;;;;;6192686;23;20036;-80
2022/07/09 02:01:41;;;;;;;10.07;8.55;;;13.70;99.90;;;;;;6191626;23;20012;-81
2022/07/09 02:04:07;;;;;;;16.08;9.35;;;13.90;99.90;;;;;;6192374;23;20486;-80
2022/07/09 02:06:32;;;;;;;13.27;10.57;;;13.80;99.90;;;;;;6192679;23;20004;-82
2022/07/09 02:08:58;;;;;;;21.77;11.63;;;13.90;99.90;;;;;;6217663;23;20372;-82
2022/07/09 02:11:23;;;;;;;15.18;11.43;;;13.90;99.90;;;;;;6217354;23;20085;-81
2022/07/09 02:13:49;;;;;;;24.23;13.55;;;14.00;99.90;;;;;;6217163;23;20035;-81
2022/07/09 02:16:15;;;;;;;19.48;12.07;;;14.00;99.90;;;;;;6217422;23;20065;-81
2022/07/09 02:18:40;;;;;;;22.15;12.45;;;14.10;99.90;;;;;;6192103;23;20015;-81
2022/07/09 02:21:07;;;;;;;18.20;12.05;;;14.10;99.90;;;;;;6217888;23;20012;-81
2022/07/09 02:23:32;;;;;;;24.73;11.27;;;14.30;99.90;;;;;;6217220;23;20008;-81
2022/07/09 02:25:58;;;;;;;27.13;13.43;;;14.30;99.90;;;;;;6217271;23;20004;-81
2022/07/09 02:28:23;;;;;;;16.50;11.23;;;14.30;99.90;;;;;;6217590;23;20008;-81
2022/07/09 02:30:49;;;;;;;19.85;11.57;;;14.30;99.90;;;;;;6192677;23;20062;-81
2022/07/09 02:33:15;;;;;;;25.25;12.07;;;14.40;99.90;;;;;;6217042;22;20348;-81
2022/07/09 02:35:42;;;;;;;19.48;11.48;;;14.50;99.90;;;;;;6217811;23;20176;-81
2022/07/09 02:38:08;;;;;;;19.98;12.13;;;14.50;99.90;;;;;;6241783;23;20467;-80
2022/07/09 02:40:34;;;;;;;15.68;9.82;;;14.50;99.90;;;;;;6217618;23;20016;-81
2022/07/09 02:43:00;;;;;;;21.60;11.50;;;14.60;99.90;;;;;;6192105;23;20012;-81
2022/07/09 02:45:25;;;;;;;16.08;10.55;;;14.70;99.90;;;;;;6217343;23;20345;-81
2022/07/09 02:47:51;;;;;;;17.45;10.55;;;14.60;99.90;;;;;;6216920;23;20019;-81
2022/07/09 02:50:16;;;;;;;20.90;10.23;;;14.60;99.90;;;;;;6217387;23;20377;-81
2022/07/09 02:52:42;;;;;;;17.85;10.73;;;14.70;99.90;;;;;;6191643;23;20077;-81
2022/07/09 02:55:08;;;;;;;23.05;10.57;;;14.70;99.90;;;;;;6217563;23;20004;-81
2022/07/09 02:57:33;;;;;;;24.40;10.82;;;14.80;99.90;;;;;;6217652;23;20008;-81
2022/07/09 02:59:59;;;;;;;31.55;11.05;;;14.80;99.90;;;;;;6217384;23;20016;-82
2022/07/09 03:02:24;;;;;;;21.00;11.27;;;14.80;99.90;;;;;;6192124;23;20016;-82
2022/07/09 03:04:50;;;;;;;17.80;10.27;;;14.80;99.90;;;;;;6217657;23;20015;-83
2022/07/09 03:07:17;;;;;;;20.52;11.00;;;14.90;99.90;;;;;;6191965;23;20012;-82
2022/07/09 03:09:42;;;;;;;20.13;10.88;;;14.90;99.90;;;;;;6217299;23;20009;-82
2022/07/09 03:12:08;;;;;;;33.97;12.50;;;14.90;99.90;;;;;;6217080;23;20035;-81
2022/07/09 03:14:35;;;;;;;14.80;9.35;;;15.00;99.90;;;;;;6217472;23;20011;-82
2022/07/09 03:17:00;;;;;;;15.80;9.85;;;15.00;99.90;;;;;;6191846;23;20384;-81
2022/07/09 03:19:26;;;;;;;24.50;9.88;;;15.10;99.90;;;;;;6192207;23;20021;-81
2022/07/09 03:21:51;;;;;;;18.85;9.82;;;15.00;99.90;;;;;;6192512;23;20015;-81
2022/07/09 03:24:17;;;;;;;32.00;9.70;;;15.00;99.90;;;;;;6191929;23;20012;-83
2022/07/09 03:26:43;;;;;;;14.63;9.00;;;15.00;99.90;;;;;;6217046;23;20062;-83
2022/07/09 03:29:08;;;;;;;11.32;8.43;;;15.00;99.90;;;;;;6192078;23;20078;-81
2022/07/09 03:31:34;;;;;;;13.40;8.77;;;15.00;99.90;;;;;;6192194;23;20015;-81
2022/07/09 03:34:00;;;;;;;17.05;9.95;;;15.00;99.90;;;;;;6191767;23;20087;-81
2022/07/09 03:36:25;;;;;;;14.48;10.25;;;15.00;99.90;;;;;;6192339;23;20509;-82
2022/07/09 03:38:51;;;;;;;14.57;10.02;;;14.90;99.90;;;;;;6216691;23;20083;-81
2022/07/09 03:41:16;;;;;;;18.70;10.65;;;15.00;99.90;;;;;;6216967;23;20016;-81
2022/07/09 03:43:42;;;;;;;19.85;10.77;;;15.00;99.90;;;;;;6216042;23;20019;-81
2022/07/09 03:46:08;;;;;;;14.68;9.45;;;15.00;99.90;;;;;;6217182;23;20019;-82
2022/07/09 03:48:34;;;;;;;13.07;9.32;;;15.10;99.90;;;;;;6217053;23;20012;-81
2022/07/09 03:51:00;;;;;;;23.52;10.57;;;15.10;99.90;;;;;;6192273;23;20012;-81
2022/07/09 03:53:25;;;;;;;14.40;8.90;;;15.10;99.90;;;;;;6216805;22;20013;-81
2022/07/09 03:55:51;;;;;;;12.70;8.48;;;15.10;99.90;;;;;;6192405;23;20445;-81
2022/07/09 03:58:17;;;;;;;13.38;9.00;;;15.10;99.90;;;;;;6192608;23;20065;-82
2022/07/09 04:00:43;;;;;;;11.70;8.73;;;15.10;99.90;;;;;;6219149;23;20022;-82
2022/07/09 04:03:08;;;;;;;19.25;10.57;;;15.10;99.90;;;;;;6193604;22;20083;-82
2022/07/09 04:05:34;;;;;;;13.35;9.30;;;15.10;99.90;;;;;;6219121;23;20016;-81
2022/07/09 04:07:59;;;;;;;11.57;8.20;;;15.10;99.90;;;;;;6193997;23;20336;-82
2022/07/09 04:10:25;;;;;;;16.42;10.70;;;15.20;99.90;;;;;;6193884;23;20043;-81
2022/07/09 04:12:51;;;;;;;15.02;9.65;;;15.20;99.90;;;;;;6218032;23;20008;-81
2022/07/09 04:15:16;;;;;;;14.65;9.25;;;15.20;99.90;;;;;;6193481;23;20016;-81
2022/07/09 04:17:42;;;;;;;13.55;9.60;;;15.20;99.90;;;;;;6218112;23;20004;-82
2022/07/09 04:20:08;;;;;;;14.65;10.02;;;15.20;99.90;;;;;;6194072;23;20012;-81
2022/07/09 04:22:34;;;;;;;13.02;8.43;;;15.30;99.90;;;;;;6218086;23;20523;-82
2022/07/09 04:24:59;;;;;;;12.50;8.80;;;15.20;99.90;;;;;;6193743;23;20036;-82
2022/07/09 04:27:25;;;;;;;14.13;9.55;;;15.30;99.90;;;;;;6219350;23;20011;-82
2022/07/09 04:29:51;;;;;;;16.85;9.73;;;15.30;99.90;;;;;;6193221;23;20467;-81
2022/07/09 04:32:16;;;;;;;16.92;9.07;;;15.40;99.90;;;;;;6218528;23;20012;-82
2022/07/09 04:34:42;;;;;;;16.35;10.52;;;15.40;99.90;;;;;;6193590;23;20016;-81
2022/07/09 04:37:08;;;;;;;24.98;10.75;;;15.50;99.90;;;;;;6218015;23;20012;-81
2022/07/09 04:39:34;;;;;;;18.77;10.07;;;15.50;99.90;;;;;;6193334;23;20008;-81
2022/07/09 04:41:59;;;;;;;13.35;8.68;;;15.50;99.90;;;;;;6218886;23;20087;-81
2022/07/09 04:44:25;;;;;;;19.48;9.95;;;15.50;99.90;;;;;;6192793;23;20089;-81
2022/07/09 04:46:50;;;;;;;14.68;9.07;;;15.50;99.90;;;;;;6193350;23;20471;-82
2022/07/09 04:49:16;;;;;;;16.75;9.38;;;15.60;99.90;;;;;;6192896;23;20012;-81
2022/07/09 04:51:42;;;;;;;25.08;10.77;;;15.60;99.90;;;;;;6192733;23;20016;-82
2022/07/09 04:54:07;;;;;;;13.80;9.60;;;15.70;99.90;;;;;;6218054;23;20008;-81
2022/07/09 04:56:33;;;;;;;14.20;9.50;;;15.70;99.90;;;;;;6193094;23;20010;-81
2022/07/09 05:09:20;;;;;;;19.30;10.57;;;15.90;99.90;;;;;;6267106;22;20019;-81
2022/07/09 05:11:46;;;;;;;14.70;9.60;;;16.00;99.90;;;;;;6279400;22;20089;-82
2022/07/09 05:14:12;;;;;;;11.05;9.10;;;16.00;99.90;;;;;;6254284;22;20034;-82
2022/07/09 05:16:39;;;;;;;13.85;9.75;;;16.10;99.90;;;;;;6253655;22;20015;-82
2022/07/09 05:19:05;;;;;;;13.65;8.95;;;16.20;99.90;;;;;;6279389;22;20007;-82
2022/07/09 05:21:30;;;;;;;19.13;10.02;;;16.30;99.90;;;;;;6254030;22;20057;-82
2022/07/09 05:23:56;;;;;;;13.07;9.80;;;16.40;99.90;;;;;;6253979;22;20347;-82
2022/07/09 05:26:22;;;;;;;16.02;10.38;;;16.40;99.90;;;;;;6253329;22;20469;-82
2022/07/09 05:28:47;;;;;;;16.63;10.30;;;16.40;99.90;;;;;;6254011;22;20320;-82
2022/07/09 05:31:13;;;;;;;15.68;9.85;;;16.40;99.90;;;;;;6253596;22;20008;-82
2022/07/09 05:33:39;;;;;;;13.93;9.32;;;16.50;99.90;;;;;;6255170;22;20023;-82
2022/07/09 05:36:04;;;;;;;15.48;9.45;;;16.40;99.90;;;;;;6280758;22;20011;-81
2022/07/09 05:38:30;;;;;;;13.88;9.73;;;16.60;99.90;;;;;;6255047;22;20003;-82
2022/07/09 05:40:57;;;;;;;15.20;9.85;;;16.60;99.90;;;;;;6255172;22;20149;-82
2022/07/09 05:43:23;;;;;;;13.55;9.13;;;16.60;99.90;;;;;;6253397;22;20011;-81
2022/07/09 05:45:48;;;;;;;13.23;8.85;;;16.70;99.90;;;;;;6254153;22;20398;-81
2022/07/09 05:48:14;;;;;;;11.18;8.80;;;16.80;99.90;;;;;;6254023;22;20011;-81
2022/07/09 05:50:39;;;;;;;11.35;7.60;;;16.90;99.90;;;;;;6253643;22;20011;-81
2022/07/09 05:53:05;;;;;;;11.93;7.65;;;17.00;99.90;;;;;;6278185;22;20450;-81
2022/07/09 05:55:31;;;;;;;12.40;7.60;;;17.10;99.90;;;;;;6279318;22;20011;-81
2022/07/09 05:57:57;;;;;;;12.35;8.00;;;17.20;99.90;;;;;;6254125;22;20022;-81
2022/07/09 06:00:22;;;;;;;12.43;8.10;;;17.30;99.90;;;;;;6254016;22;20007;-81
2022/07/09 06:02:48;;;;;;;10.77;7.35;;;17.40;99.90;;;;;;6254185;22;20007;-82
2022/07/09 06:05:14;;;;;;;9.45;6.22;;;17.50;99.90;;;;;;6254634;22;20011;-82
2022/07/09 06:07:44;;;;;;;9.02;6.93;;;17.60;99.90;;;;;;6255818;22;20015;-81
2022/07/09 06:10:12;;;;;;;9.18;6.05;;;17.60;99.90;;;;;;6255474;22;20018;-82
2022/07/09 06:12:38;;;;;;;9.48;6.30;;;17.70;99.90;;;;;;6254431;22;20007;-82
2022/07/09 06:15:05;;;;;;;10.63;6.70;;;17.80;99.90;;;;;;6280136;22;20003;-81
2022/07/09 06:17:30;;;;;;;7.70;6.20;;;17.80;99.90;;;;;;6254241;22;20014;-82
2022/07/09 06:19:56;;;;;;;9.30;5.72;;;17.80;99.90;;;;;;6281303;22;20413;-82
2022/07/09 06:22:21;;;;;;;9.30;5.88;;;17.90;99.90;;;;;;6254102;22;20007;-82
2022/07/09 06:24:47;;;;;;;7.68;5.05;;;18.00;99.90;;;;;;6281415;22;20072;-82
2022/07/09 06:27:13;;;;;;;7.97;5.60;;;17.90;99.90;;;;;;6255529;22;20018;-82
2022/07/09 06:29:38;;;;;;;8.48;5.65;;;18.00;99.90;;;;;;6254633;22;20011;-82
2022/07/09 06:32:04;;;;;;;7.97;6.10;;;18.00;99.90;;;;;;6252782;22;20024;-82
2022/07/09 06:34:30;;;;;;;7.90;5.38;;;18.00;99.90;;;;;;6253911;22;20029;-82
2022/07/09 06:36:55;;;;;;;10.35;5.75;;;18.00;99.90;;;;;;6254378;22;20080;-80
2022/07/09 06:42:06;;;;;;;9.40;5.45;;;18.00;99.90;;;;;;6282232;22;20505;-81
2022/07/09 06:44:35;;;;;;;7.00;5.50;;;18.00;99.90;;;;;;6253025;22;20343;-81
2022/07/09 06:47:01;;;;;;;6.90;4.50;;;18.00;99.90;;;;;;6255375;22;20007;-81
2022/07/09 06:49:27;;;;;;;7.18;4.00;;;18.10;99.90;;;;;;6255041;22;20462;-81
2022/07/09 06:51:52;;;;;;;6.70;3.88;;;18.10;99.90;;;;;;6254220;22;20022;-82
2022/07/09 06:54:18;;;;;;;4.97;4.13;;;18.20;99.90;;;;;;6278653;22;20003;-81
2022/07/09 06:56:43;;;;;;;5.88;4.07;;;18.20;99.90;;;;;;6257393;22;20037;-81
2022/07/09 06:59:09;;;;;;;5.82;4.00;;;18.20;99.90;;;;;;6284113;22;20007;-81
2022/07/09 07:01:35;;;;;;;5.82;4.20;;;18.30;99.90;;;;;;6263808;22;20501;-81
2022/07/09 07:04:00;;;;;;;6.28;3.90;;;18.30;99.90;;;;;;6291595;22;20072;-81
2022/07/09 07:06:26;;;;;;;6.55;3.65;;;18.30;99.90;;;;;;6264976;22;20018;-82
2022/07/09 07:08:51;;;;;;;7.57;3.60;;;18.40;99.90;;;;;;6263068;22;20431;-81
2022/07/09 07:11:18;;;;;;;4.45;3.50;;;18.50;99.90;;;;;;6266462;22;20007;-81
2022/07/09 07:13:43;;;;;;;6.22;3.55;;;18.60;99.90;;;;;;6266893;22;20015;-82
2022/07/09 07:16:09;;;;;;;5.13;3.80;;;18.60;99.90;;;;;;6280114;22;20089;-85
2022/07/09 07:18:34;;;;;;;5.13;3.45;;;18.70;99.90;;;;;;6260602;22;20015;-83
2022/07/09 07:21:00;;;;;;;5.53;3.60;;;18.90;99.90;;;;;;6264415;22;20018;-82
2022/07/09 07:23:26;;;;;;;4.70;3.28;;;18.90;99.90;;;;;;6266745;22;20072;-82
2022/07/09 07:25:51;;;;;;;6.32;3.22;;;19.10;99.90;;;;;;6265707;22;20026;-82
2022/07/09 07:28:17;;;;;;;6.68;3.38;;;19.20;99.90;;;;;;6264365;22;20007;-83
2022/07/09 07:30:42;;;;;;;4.07;2.85;;;19.30;99.90;;;;;;6262184;22;20030;-83
2022/07/09 07:33:08;;;;;;;4.40;2.80;;;19.40;99.90;;;;;;6268977;22;20008;-83
2022/07/09 07:35:34;;;;;;;4.82;2.97;;;19.50;99.90;;;;;;6292521;22;20007;-82
2022/07/09 07:38:00;;;;;;;5.53;3.60;;;19.60;99.90;;;;;;6267320;22;20469;-83
2022/07/09 07:40:29;;;;;;;5.07;3.47;;;19.70;99.90;;;;;;6267868;22;20385;-83
2022/07/09 07:42:54;;;;;;;4.18;3.05;;;19.80;99.90;;;;;;6265345;22;20016;-83
2022/07/09 07:45:20;;;;;;;4.65;2.60;;;19.90;99.90;;;;;;6272493;22;20018;-82
2022/07/09 07:47:46;;;;;;;4.00;2.83;;;20.00;99.90;;;;;;6271438;22;20506;-82
2022/07/09 07:50:11;;;;;;;3.80;2.90;;;20.00;99.90;;;;;;6266807;22;20008;-83
2022/07/09 07:52:37;;;;;;;3.65;3.08;;;20.00;99.90;;;;;;6263582;22;20023;-83
2022/07/09 07:55:03;;;;;;;5.00;3.20;;;20.00;99.90;;;;;;6263476;22;20011;-86
2022/07/09 07:57:29;;;;;;;4.00;3.22;;;19.90;99.90;;;;;;6256838;22;20084;-83
2022/07/09 07:59:55;;;;;;;6.57;3.35;;;19.90;99.90;;;;;;6266611;22;20444;-82
2022/07/09 08:02:20;;;;;;;3.35;3.05;;;19.80;99.90;;;;;;6266785;22;20019;-82
2022/07/09 08:04:46;;;;;;;5.05;2.65;;;19.70;99.90;;;;;;6276446;22;20339;-83
2022/07/09 08:07:12;;;;;;;3.80;2.80;;;19.70;99.90;;;;;;6266907;22;20386;-82
2022/07/09 08:09:38;;;;;;;4.30;2.72;;;19.70;99.90;;;;;;6262911;22;20015;-83
2022/07/09 08:12:04;;;;;;;3.55;2.85;;;19.70;99.90;;;;;;6258301;22;20018;-83
2022/07/09 08:14:29;;;;;;;5.68;3.20;;;19.80;99.90;;;;;;6283721;22;20363;-82
2022/07/09 08:16:55;;;;;;;3.80;2.60;;;19.90;99.90;;;;;;6258569;22;20456;-83
2022/07/09 08:19:21;;;;;;;3.83;3.00;;;20.00;99.90;;;;;;6254899;22;20011;-82
2022/07/09 08:21:46;;;;;;;3.33;2.92;;;20.10;99.90;;;;;;6259696;22;20007;-83
2022/07/09 08:24:12;;;;;;;5.38;3.25;;;20.20;99.90;;;;;;6256229;22;20011;-82
2022/07/09 08:26:40;;;;;;;3.13;2.80;;;20.30;99.90;;;;;;6284485;22;20443;-82
2022/07/09 08:29:06;;;;;;;4.70;2.80;;;20.30;99.90;;;;;;6282377;22;20007;-82
2022/07/09 08:31:31;;;;;;;4.85;2.67;;;20.30;99.90;;;;;;6260706;22;20038;-82
2022/07/09 08:33:57;;;;;;;5.55;3.15;;;20.30;99.90;;;;;;6259342;22;20061;-81
2022/07/09 08:36:23;;;;;;;3.95;2.60;;;20.40;99.90;;;;;;6260681;22;20010;-84
2022/07/09 08:38:49;;;;;;;3.38;2.63;;;20.40;99.90;;;;;;6257559;22;20133;-83
2022/07/09 08:41:19;;;;;;;3.85;2.63;;;20.50;99.90;;;;;;6256398;22;20021;-81
2022/07/09 08:43:50;;;;;;;6.15;2.75;;;20.70;99.90;;;;;;6260281;22;20008;-82
2022/07/09 08:46:16;;;;;;;3.58;2.50;;;20.80;99.90;;;;;;6260993;22;20022;-82
2022/07/09 08:48:43;;;;;;;3.92;2.55;;;20.90;99.90;;;;;;6259277;22;20014;-82
2022/07/09 08:51:09;;;;;;;2.92;2.00;;;21.00;99.90;;;;;;6260242;22;20011;-82
2022/07/09 08:53:40;;;;;;;2.33;1.70;;;21.00;99.90;;;;;;6260604;22;20008;-82
2022/07/09 08:56:07;;;;;;;3.05;2.03;;;21.00;99.90;;;;;;6286288;22;20003;-82
2022/07/09 08:58:32;;;;;;;2.97;2.20;;;21.10;99.90;;;;;;6259851;22;20064;-82
2022/07/09 09:00:58;;;;;;;3.28;2.10;;;21.30;99.90;;;;;;6282948;22;20007;-80
2022/07/09 09:03:24;;;;;;;2.50;2.00;;;21.70;99.90;;;;;;6259417;22;20014;-81
2022/07/09 09:06:08;;;;;;;3.63;2.20;;;22.00;99.90;;;;;;6287301;22;20545;-82
2022/07/09 09:08:39;;;;;;;3.63;2.20;;;22.30;99.90;;;;;;6261948;22;20067;-84
2022/07/09 09:11:07;;;;;;;4.30;1.80;;;22.50;99.90;;;;;;6261156;22;20004;-82
2022/07/09 09:13:47;;;;;;;3.22;1.60;;;22.50;99.90;;;;;;6264687;22;20018;-83
2022/07/09 09:16:14;;;;;;;2.92;1.38;;;22.60;99.90;;;;;;6285603;22;20027;-82
2022/07/09 09:18:50;;;;;;;3.30;1.23;;;22.80;99.90;;;;;;6257765;22;20011;-83
2022/07/09 09:21:20;;;;;;;4.15;1.40;;;23.00;99.90;;;;;;6256364;22;20012;-83
2022/07/09 09:23:48;;;;;;;2.38;1.33;;;23.00;99.90;;;;;;6258649;22;20011;-82
2022/07/09 09:26:16;;;;;;;3.92;1.58;;;23.10;99.90;;;;;;6263337;22;20046;-82
2022/07/09 09:28:46;;;;;;;3.20;1.60;;;23.00;99.90;;;;;;6286271;22;20012;-82
2022/07/09 09:31:29;;;;;;;3.63;1.60;;;23.00;99.90;;;;;;6265465;22;20533;-82
2022/07/09 09:34:08;;;;;;;4.55;1.80;;;22.90;99.90;;;;;;6266516;22;20062;-82
2022/07/09 09:36:36;;;;;;;4.00;1.55;;;22.90;99.90;;;;;;6265937;22;20033;-80
2022/07/09 09:39:12;;;;;;;3.83;1.45;;;23.00;99.90;;;;;;6266058;22;20008;-80
2022/07/09 09:41:38;;;;;;;4.03;1.50;;;23.20;99.90;;;;;;6261924;22;20007;-80
2022/07/09 09:44:09;;;;;;;4.45;1.60;;;23.40;99.90;;;;;;6259974;22;20014;-80
2022/07/09 09:46:39;;;;;;;2.13;1.63;;;23.40;99.90;;;;;;6262208;22;20067;-80
2022/07/09 09:49:10;;;;;;;3.03;1.48;;;23.50;99.90;;;;;;6259493;22;20022;-81
2022/07/09 09:51:55;;;;;;;3.20;1.40;;;23.60;99.90;;;;;;6281505;22;20034;-80
2022/07/09 09:54:22;;;;;;;3.03;1.38;;;23.80;99.90;;;;;;6284730;22;20018;-80
2022/07/09 09:56:49;;;;;;;3.28;1.23;;;24.10;99.90;;;;;;6264791;22;20015;-80
2022/07/09 09:59:16;;;;;;;3.80;2.00;;;24.20;99.90;;;;;;6268110;22;20090;-83
2022/07/09 10:01:42;;;;;;;4.15;1.25;;;24.00;99.90;;;;;;6273512;22;20008;-82
2022/07/09 10:04:09;;;;;;;2.85;1.30;;;23.70;99.90;;;;;;6265471;22;20011;-81
2022/07/09 10:06:36;;;;;;;3.25;1.42;;;23.40;99.90;;;;;;6273833;22;20043;-81
2022/07/09 10:09:04;;;;;;;4.60;1.10;;;23.30;99.90;;;;;;6296926;22;20007;-81
2022/07/09 10:11:43;;;;;;;2.38;0.95;;;23.30;99.90;;;;;;6285245;22;20015;-81
2022/07/09 10:14:16;;;;;;;2.42;1.00;;;23.50;99.90;;;;;;6268107;22;20037;-81
2022/07/09 10:16:42;;;;;;;3.05;1.02;;;23.80;99.90;;;;;;6265539;22;20007;-81
2022/07/09 10:19:07;;;;;;;3.58;1.00;;;24.00;99.90;;;;;;6255315;22;20086;-83
2022/07/09 10:21:41;;;;;;;2.67;0.90;;;24.40;99.90;;;;;;6258177;22;20022;-84
2022/07/09 10:24:09;;;;;;;5.20;1.10;;;24.70;99.90;;;;;;6264865;22;20059;-81
2022/07/09 10:26:46;;;;;;;4.38;1.20;;;24.80;99.90;;;;;;6274958;22;20068;-81
2022/07/09 10:29:22;;;;;;;3.00;1.08;;;24.90;99.90;;;;;;6303457;22;20002;-81
2022/07/09 10:31:48;;;;;;;3.42;1.00;;;25.00;99.90;;;;;;6279257;22;20037;-81
2022/07/09 10:34:47;;;;;;;2.17;1.10;;;24.90;99.90;;;;;;6268182;22;20038;-81
2022/07/09 10:37:13;;;;;;;3.88;1.00;;;24.80;99.90;;;;;;6258467;22;20355;-82
2022/07/09 10:39:39;;;;;;;4.40;1.00;;;24.70;99.90;;;;;;6255528;22;20011;-82
2022/07/09 10:42:19;;;;;;;3.78;1.10;;;24.70;99.90;;;;;;6282787;22;20045;-82
2022/07/09 10:44:45;;;;;;;1.75;0.63;;;24.80;99.90;;;;;;6255356;22;20077;-82
2022/07/09 10:47:12;;;;;;;1.73;0.80;;;24.80;99.90;;;;;;6284338;22;20007;-81
2022/07/09 10:49:38;;;;;;;1.92;0.90;;;24.60;99.90;;;;;;6285011;22;20383;-82
2022/07/09 10:52:08;;;;;;;1.45;0.90;;;24.30;99.90;;;;;;6257381;22;20094;-80
2022/07/09 10:54:34;;;;;;;4.25;1.13;;;24.10;99.90;;;;;;6258023;22;20018;-81
2022/07/09 10:57:00;;;;;;;2.75;1.20;;;23.80;99.90;;;;;;6258845;22;20089;-81
2022/07/09 10:59:26;;;;;;;4.65;1.20;;;23.50;99.90;;;;;;6259996;22;20023;-81
2022/07/09 11:01:55;;;;;;;3.80;1.20;;;23.20;99.90;;;;;;6261202;22;20435;-81
2022/07/09 11:04:28;;;;;;;2.78;1.20;;;23.00;99.90;;;;;;6258958;22;20501;-81
2022/07/09 11:06:54;;;;;;;4.85;1.00;;;22.80;99.90;;;;;;6261315;22;20007;-81
2022/07/09 11:56:03;;;;;;;4.60;1.15;;;24.70;92.00;;;;;;6307269;22;20454;-83
2022/07/09 11:58:29;;;;;;;5.65;1.33;;;25.00;92.50;;;;;;6253883;22;20332;-83
2022/07/09 12:00:55;;;;;;;5.25;1.40;;;25.50;92.30;;;;;;6279547;22;20017;-83
2022/07/09 12:03:25;;;;;;;4.95;1.30;;;25.80;88.30;;;;;;6279157;22;20007;-82
2022/07/09 12:05:51;;;;;;;6.63;1.40;;;25.50;85.30;;;;;;6255010;22;20466;-82
2022/07/09 14:27:21;;;;;;;3.08;0.90;;;24.50;75.20;;;;;;6220741;22;20051;-84
2022/07/09 14:29:47;;;;;;;3.58;0.70;;;24.60;74.20;;;;;;6219888;22;20021;-84
2022/07/09 14:32:12;;;;;;;3.25;0.90;;;24.80;74.40;;;;;;6247611;22;20498;-83
2022/07/09 14:34:38;;;;;;;2.35;0.70;;;24.70;73.20;;;;;;6222842;22;20339;-85
2022/07/09 14:37:04;;;;;;;3.40;0.80;;;24.50;73.70;;;;;;6221994;22;20007;-85
2022/07/09 14:39:29;;;;;;;4.70;1.00;;;24.20;74.40;;;;;;6218220;23;20087;-85
2022/07/09 15:00:03;;;;;;;2.28;0.80;;;24.60;74.30;;;;;;6250400;22;20049;-85
2022/07/09 15:02:29;;;;;;;2.28;0.90;;;24.40;72.60;;;;;;6250704;22;20466;-85
2022/07/09 15:04:56;;;;;;;2.30;0.80;;;24.20;74.20;;;;;;6278222;22;20004;-85
2022/07/09 15:07:22;;;;;;;4.55;1.02;;;24.00;74.90;;;;;;6251429;22;20443;-86
2022/07/09 15:09:48;;;;;;;3.33;0.90;;;23.90;74.90;;;;;;6251934;22;20011;-86
2022/07/09 15:12:14;;;;;;;2.58;1.10;;;23.70;74.90;;;;;;6252561;22;20014;-83
2022/07/09 15:25:04;;;;;;;3.80;1.15;;;22.30;77.70;;;;;;6304024;22;20035;-86
2022/07/09 15:27:31;;;;;;;4.78;1.13;;;22.10;78.50;;;;;;6250181;22;20035;-86
2022/07/09 15:29:57;;;;;;;4.88;1.13;;;21.90;77.90;;;;;;6251198;22;20218;-86
2022/07/09 15:32:22;;;;;;;4.93;1.35;;;21.70;78.40;;;;;;6252043;22;20301;-86
2022/07/09 15:34:48;;;;;;;5.38;1.30;;;21.60;81.30;;;;;;6252850;22;20007;-86
2022/07/09 15:37:14;;;;;;;9.15;1.20;;;21.50;82.50;;;;;;6251960;22;20008;-86
2022/07/09 15:39:39;;;;;;;5.78;1.38;;;21.50;83.60;;;;;;6249715;22;20008;-86
2022/07/09 15:42:05;;;;;;;5.38;1.23;;;21.40;83.00;;;;;;6252323;22;20007;-86
2022/07/09 15:44:31;;;;;;;4.13;1.50;;;21.20;81.40;;;;;;6252411;22;20455;-85
2022/07/09 15:46:58;;;;;;;7.57;2.13;;;20.90;82.00;;;;;;6253022;22;20050;-86
2022/07/09 15:49:23;;;;;;;5.93;1.58;;;20.60;83.30;;;;;;6252756;22;20007;-86
2022/07/09 15:51:49;;;;;;;6.53;1.58;;;20.50;85.50;;;;;;6252326;22;20015;-86
2022/07/09 15:54:15;;;;;;;6.47;1.73;;;20.60;87.90;;;;;;6279654;22;20038;-84
2022/07/09 15:56:41;;;;;;;5.93;1.80;;;20.70;89.80;;;;;;6254394;22;20011;-84
2022/07/09 15:59:06;;;;;;;5.78;1.80;;;20.70;87.70;;;;;;6280167;22;20011;-84
2022/07/09 16:01:32;;;;;;;7.07;2.28;;;20.70;87.60;;;;;;6254236;22;20007;-84
2022/07/09 16:03:58;;;;;;;5.38;2.00;;;20.60;87.20;;;;;;6254748;22;20011;-84
2022/07/09 16:06:23;;;;;;;4.55;1.65;;;20.50;86.00;;;;;;6254534;22;20007;-84
2022/07/09 16:08:49;;;;;;;6.88;1.80;;;20.50;86.00;;;;;;6254138;22;20007;-84
2022/07/09 16:13:59;;;;;;;3.50;1.25;;;20.30;85.60;;;;;;6280179;22;20015;-84
2022/07/09 16:16:24;;;;;;;5.55;1.15;;;20.20;85.10;;;;;;6254668;22;20010;-83
2022/07/09 16:18:50;;;;;;;2.67;1.00;;;20.10;84.60;;;;;;6254327;22;20003;-84
2022/07/09 16:21:16;;;;;;;4.35;1.08;;;20.00;84.90;;;;;;6254413;22;20008;-84
2022/07/09 16:23:41;;;;;;;2.55;1.20;;;19.80;84.80;;;;;;6254355;22;20015;-85
2022/07/09 16:26:07;;;;;;;3.17;0.90;;;19.80;85.00;;;;;;6254617;22;20046;-84
2022/07/09 16:28:33;;;;;;;2.95;1.20;;;19.70;85.70;;;;;;6254370;22;20018;-84